LiveATC.Net - Listen to live air traffic control over the Internet! Contact LiveATC.net for advertising information


ICAO: YCFS  IATA: CFS   Airport: Coffs Harbour Airport
City: Coffs Harbour   State/Province: New South Wales
Country: Australia   Continent: Oceania
YCFS METAR Weather: YCFS 160830Z AUTO 36003KT 9999 // NCD 19/16 Q1008
YCFS Flight Activity (FlightAware)
YCFS Twr/Brisbane Center
Feed Status: DOWN
Last heard on: 2014-09-15 13:06:04 (0 days 20 hours 21 minutes ago)
YCFS Twr/Brisbane Center Audio Archives
FacilityFrequency
Brisbane Center134.200
Coffs Harbour Tower118.200


NOTICE

Unauthorized use prohibited. See LiveATC.net Terms of Service


Find LiveATC Audio Streams


Airport/ARTCC Code

Frequency
(e.g., 124.400, 128.75)
Site-wide search

Browse LiveATC Feeds
LiveATC Coverage Map
Top 50 LiveATC Feeds
Bad Weather Areas

LiveATC FAQ
Offer a LiveATC Feed
Contact LiveATC.net
Press Inquiries

LiveATC on iPhone
LiveATC on Android

LiveATC Mobile
(Mobile browser)

ATC Audio Archives
Interesting Recordings

LiveATC Forums


Home Page
About LiveATC.net
Make a Donation
LiveATC Bookstore

Terms of Use
Privacy Policy

ATC/Radar Sites
U.S. ARTCC Freqs
Canadian Air Freqs

AIRMETs/SIGMETs

FAA Airport Status
Nat'l Airspace Status
Arrival Demand Charts


Server Software By:
Icecast.org
Liquidsoap

Please make a donation to help us keep growing!